createdAt,value
2023-05-01T00:01:47.886Z,9.32
2023-05-01T00:04:14.637Z,9.32
2023-05-01T00:06:41.527Z,9.28
2023-05-01T00:09:08.394Z,9.24
2023-05-01T00:11:37.528Z,9.27
2023-05-01T00:14:04.706Z,9.31
2023-05-01T00:16:31.474Z,9.33
2023-05-01T00:18:58.172Z,9.28
2023-05-01T00:21:25.033Z,9.26
2023-05-01T00:23:52.027Z,9.21
2023-05-01T00:26:19.041Z,9.17
2023-05-01T00:28:48.361Z,9.17
2023-05-01T00:31:15.526Z,9.18
2023-05-01T00:33:42.341Z,9.19
2023-05-01T00:36:10.193Z,9.20
2023-05-01T00:38:36.822Z,9.18
2023-05-01T00:41:03.537Z,9.13
2023-05-01T00:43:30.527Z,9.05
2023-05-01T00:45:57.249Z,9.03
2023-05-01T00:48:24.248Z,8.99
2023-05-01T00:50:51.076Z,8.92
2023-05-01T00:53:18.969Z,8.89
2023-05-01T00:55:46.454Z,8.87
2023-05-01T00:58:17.017Z,8.87
2023-05-01T01:00:44.384Z,8.84
2023-05-01T01:03:11.739Z,8.85
2023-05-01T01:05:44.983Z,8.87
2023-05-01T01:08:16.960Z,8.89
2023-05-01T01:10:54.569Z,8.88
2023-05-01T01:13:32.500Z,8.83
2023-05-01T01:16:19.257Z,8.84
2023-05-01T01:18:56.496Z,8.81
2023-05-01T01:21:38.190Z,8.81
2023-05-01T01:24:08.112Z,8.74
2023-05-01T01:27:02.915Z,8.69
2023-05-01T01:29:48.144Z,8.68
2023-05-01T01:32:32.599Z,8.62
2023-05-01T01:35:06.826Z,8.55
2023-05-01T01:37:55.611Z,8.55
2023-05-01T01:40:48.150Z,8.44
2023-05-01T01:43:17.917Z,8.38
2023-05-01T01:45:48.023Z,8.44
2023-05-01T01:48:22.089Z,8.51
2023-05-01T01:50:49.221Z,8.55
2023-05-01T01:53:18.493Z,8.64
2023-05-01T01:55:47.518Z,8.71
2023-05-01T01:58:17.148Z,8.72
2023-05-01T02:00:45.705Z,8.71
2023-05-01T02:03:24.298Z,8.74
2023-05-01T02:05:53.496Z,8.65
2023-05-01T02:08:21.976Z,8.58
2023-05-01T02:10:50.949Z,8.48
2023-05-01T02:13:20.467Z,8.48
2023-05-01T02:15:49.070Z,8.46
2023-05-01T02:18:16.764Z,8.45
2023-05-01T02:20:44.698Z,8.47
2023-05-01T02:23:13.104Z,8.41
2023-05-01T02:25:40.380Z,8.39
2023-05-01T02:28:12.760Z,8.44
2023-05-01T02:30:39.830Z,8.38
2023-05-01T02:33:09.508Z,8.46
2023-05-01T02:35:41.004Z,8.52
2023-05-01T02:38:08.290Z,8.48
2023-05-01T02:40:37.002Z,8.54
2023-05-01T02:43:06.618Z,8.52
2023-05-01T02:45:37.767Z,8.56
2023-05-01T02:48:07.393Z,8.62
2023-05-01T02:50:34.800Z,8.51
2023-05-01T02:53:01.831Z,8.52
2023-05-01T02:55:45.650Z,8.49
2023-05-01T02:58:19.248Z,8.53
2023-05-01T03:00:48.367Z,8.52
2023-05-01T03:03:16.308Z,8.52
2023-05-01T03:05:43.023Z,8.53
2023-05-01T03:08:10.610Z,8.52
2023-05-01T03:10:42.696Z,8.47
2023-05-01T03:13:13.252Z,8.50
2023-05-01T03:15:40.226Z,8.53
2023-05-01T03:18:07.931Z,8.55
2023-05-01T03:20:34.767Z,8.50
2023-05-01T03:23:02.560Z,8.53
2023-05-01T03:25:29.846Z,8.54
2023-05-01T03:27:56.629Z,8.50
2023-05-01T03:30:23.494Z,8.53
2023-05-01T03:32:51.742Z,8.49
2023-05-01T03:35:24.430Z,8.50
2023-05-01T03:37:51.117Z,8.50
2023-05-01T03:40:37.733Z,8.50
2023-05-01T03:43:39.790Z,8.48
2023-05-01T03:46:13.893Z,8.42
2023-05-01T03:48:41.943Z,8.37
2023-05-01T03:51:08.949Z,8.42
2023-05-01T03:53:36.978Z,8.43
2023-05-01T03:56:06.209Z,8.44
2023-05-01T03:58:33.083Z,8.46
2023-05-01T04:01:01.052Z,8.48
2023-05-01T04:03:28.786Z,8.43
2023-05-01T04:05:56.512Z,8.39
2023-05-01T04:08:23.509Z,8.38
2023-05-01T04:10:50.211Z,8.40
2023-05-01T04:13:16.893Z,8.46
2023-05-01T04:15:47.082Z,8.49
2023-05-01T04:18:14.366Z,8.49
2023-05-01T04:20:41.143Z,8.46
2023-05-01T04:23:09.660Z,8.48
2023-05-01T04:25:37.138Z,8.53
2023-05-01T04:28:13.741Z,8.49
2023-05-01T04:30:40.539Z,8.48
2023-05-01T04:33:11.554Z,8.52
2023-05-01T04:35:40.077Z,8.58
2023-05-01T04:38:08.197Z,8.53
2023-05-01T04:40:35.736Z,8.55
2023-05-01T04:43:02.392Z,8.65
2023-05-01T04:45:29.345Z,8.61
2023-05-01T04:47:56.438Z,8.55
2023-05-01T04:50:23.269Z,8.54
2023-05-01T04:52:51.983Z,8.52
2023-05-01T04:55:18.814Z,8.52
2023-05-01T04:58:14.608Z,8.49
2023-05-01T05:00:42.833Z,8.53
2023-05-01T05:03:14.559Z,8.52
2023-05-01T05:05:41.330Z,8.47
2023-05-01T05:08:09.412Z,8.54
2023-05-01T05:10:39.440Z,8.63
2023-05-01T05:13:19.431Z,8.65
2023-05-01T05:15:50.942Z,8.68
2023-05-01T05:18:20.325Z,8.63
2023-05-01T05:20:47.313Z,8.70
2023-05-01T05:23:13.989Z,8.64
2023-05-01T05:25:40.674Z,8.60
2023-05-01T05:28:07.729Z,8.57
2023-05-01T05:30:34.565Z,8.63
2023-05-01T05:33:08.811Z,8.58
2023-05-01T05:35:36.557Z,8.61
2023-05-01T05:38:03.938Z,8.56
2023-05-01T05:40:34.457Z,8.45
2023-05-01T05:43:01.508Z,8.44
2023-05-01T05:45:29.800Z,8.52
2023-05-01T05:47:57.571Z,8.50
2023-05-01T05:50:26.386Z,8.50
2023-05-01T05:52:53.085Z,8.39
2023-05-01T05:55:19.953Z,8.36
2023-05-01T05:57:59.314Z,8.36
2023-05-01T06:00:26.130Z,8.41
2023-05-01T06:02:54.731Z,8.34
2023-05-01T06:05:22.649Z,8.36
2023-05-01T06:07:49.458Z,8.37
2023-05-01T06:10:17.140Z,8.31
2023-05-01T06:12:53.901Z,8.26
2023-05-01T06:15:27.327Z,8.22
2023-05-01T06:17:54.703Z,8.21
2023-05-01T06:20:21.464Z,8.04
2023-05-01T06:22:50.650Z,7.90
2023-05-01T06:25:31.983Z,8.02
2023-05-01T06:27:59.587Z,8.00
2023-05-01T06:30:26.267Z,7.94
2023-05-01T06:32:53.026Z,7.88
2023-05-01T06:35:21.227Z,8.02
2023-05-01T06:37:47.989Z,8.04
2023-05-01T06:40:15.001Z,8.12
2023-05-01T06:42:42.160Z,8.14
2023-05-01T06:45:09.152Z,8.15
2023-05-01T06:47:35.949Z,7.94
2023-05-01T06:50:05.504Z,7.86
2023-05-01T06:52:33.743Z,7.83
2023-05-01T06:55:00.450Z,7.78
2023-05-01T06:57:27.283Z,7.91
2023-05-01T06:59:54.435Z,7.98
2023-05-01T07:02:21.410Z,8.03
2023-05-01T07:04:48.143Z,8.05
2023-05-01T07:07:14.850Z,8.00
2023-05-01T07:09:41.717Z,7.93
2023-05-01T07:12:08.789Z,7.90
2023-05-01T07:14:36.098Z,7.87
2023-05-01T07:17:03.599Z,7.79
2023-05-01T07:19:30.545Z,7.87
2023-05-01T07:21:57.310Z,7.89
2023-05-01T07:24:24.210Z,7.91
2023-05-01T07:26:51.782Z,8.00
2023-05-01T07:29:18.718Z,8.05
2023-05-01T07:31:46.405Z,8.04
2023-05-01T07:34:13.736Z,7.97
2023-05-01T07:36:41.626Z,8.10
2023-05-01T07:39:08.353Z,8.25
2023-05-01T07:41:35.013Z,8.41
2023-05-01T07:44:02.143Z,8.35
2023-05-01T07:46:29.685Z,8.35
2023-05-01T07:48:56.391Z,8.29
2023-05-01T07:51:23.943Z,8.29
2023-05-01T07:53:50.826Z,8.41
2023-05-01T07:56:17.607Z,8.52
2023-05-01T07:58:44.554Z,8.78
2023-05-01T08:01:11.312Z,8.93
2023-05-01T08:03:41.385Z,8.88
2023-05-01T08:06:08.261Z,8.91
2023-05-01T08:08:34.981Z,9.18
2023-05-01T08:11:01.692Z,9.36
2023-05-01T08:13:28.356Z,9.28
2023-05-01T08:15:55.355Z,9.34
2023-05-01T08:18:22.106Z,9.54
2023-05-01T08:20:49.514Z,9.85
2023-05-01T08:23:17.402Z,10.03
2023-05-01T08:25:46.927Z,9.97
2023-05-01T08:28:14.980Z,9.99
2023-05-01T08:30:41.773Z,9.88
2023-05-01T08:33:08.498Z,9.89
2023-05-01T08:35:35.289Z,9.94
2023-05-01T08:38:02.315Z,9.93
2023-05-01T08:40:32.436Z,10.04
2023-05-01T08:43:01.411Z,10.35
2023-05-01T08:45:30.838Z,10.43
2023-05-01T08:47:59.019Z,10.50
2023-05-01T08:50:27.495Z,10.44
2023-05-01T08:52:55.475Z,10.39
2023-05-01T08:55:22.699Z,10.48
2023-05-01T08:57:50.753Z,10.52
2023-05-01T09:00:21.522Z,10.73
2023-05-01T09:02:49.889Z,10.57
2023-05-01T09:05:17.724Z,10.80
2023-05-01T09:07:46.636Z,10.85
2023-05-01T09:10:15.435Z,11.00
2023-05-01T09:12:46.157Z,11.11
2023-05-01T09:15:13.432Z,11.16
2023-05-01T09:17:40.481Z,11.21
2023-05-01T09:20:07.913Z,11.27
2023-05-01T09:22:35.480Z,11.41
2023-05-01T09:25:03.176Z,11.49
2023-05-01T09:27:37.508Z,11.60
2023-05-01T09:30:06.784Z,11.69
2023-05-01T09:32:33.684Z,11.58
2023-05-01T09:35:11.965Z,11.69
2023-05-01T09:37:39.254Z,11.81
2023-05-01T09:40:06.536Z,11.95
2023-05-01T09:42:34.778Z,12.08
2023-05-01T09:45:03.806Z,12.17
2023-05-01T09:47:30.889Z,12.02
2023-05-01T09:49:59.745Z,12.18
2023-05-01T09:52:30.483Z,12.35
2023-05-01T09:55:14.540Z,12.59
2023-05-01T09:57:42.999Z,12.72
2023-05-01T10:00:15.140Z,12.73
2023-05-01T10:02:42.417Z,12.83
2023-05-01T10:05:10.848Z,13.01
2023-05-01T10:07:38.526Z,13.28
2023-05-01T10:10:17.619Z,13.42
2023-05-01T10:12:44.314Z,13.45
2023-05-01T10:15:23.909Z,13.47
2023-05-01T10:17:52.405Z,13.52
2023-05-01T10:20:19.826Z,13.61
2023-05-01T10:22:46.761Z,13.72
2023-05-01T10:25:14.087Z,13.68
2023-05-01T10:27:41.918Z,13.69
2023-05-01T10:30:10.076Z,13.68
2023-05-01T10:32:38.222Z,13.68
2023-05-01T10:35:38.227Z,13.54
2023-05-01T10:38:07.746Z,13.54
2023-05-01T10:40:40.913Z,13.76
2023-05-01T10:43:14.067Z,13.91
2023-05-01T10:45:40.747Z,14.12
2023-05-01T10:48:07.641Z,14.43
2023-05-01T10:50:34.938Z,14.74
2023-05-01T10:53:14.474Z,15.05
2023-05-01T10:55:46.234Z,15.35
2023-05-01T10:58:14.286Z,15.55
2023-05-01T11:00:41.448Z,15.72
2023-05-01T11:03:23.553Z,15.80
2023-05-01T11:06:04.404Z,15.73
2023-05-01T11:08:32.834Z,15.85
2023-05-01T11:11:21.666Z,15.90
2023-05-01T11:14:02.551Z,16.05
2023-05-01T11:16:39.097Z,16.08
2023-05-01T11:19:07.919Z,16.23
2023-05-01T11:21:36.704Z,16.43
2023-05-01T11:24:04.334Z,16.59
2023-05-01T11:26:32.665Z,16.64
2023-05-01T11:29:01.256Z,16.42
2023-05-01T11:31:29.203Z,16.38
2023-05-01T11:33:57.229Z,16.54
2023-05-01T11:36:24.005Z,16.84
2023-05-01T11:38:54.105Z,16.81
2023-05-01T11:41:21.598Z,16.99
2023-05-01T11:44:00.579Z,16.17
2023-05-01T11:46:32.061Z,15.49
2023-05-01T11:49:01.674Z,14.75
2023-05-01T11:51:30.173Z,14.46
2023-05-01T11:54:04.517Z,14.51
2023-05-01T11:56:33.351Z,14.53
2023-05-01T11:59:12.205Z,14.34
2023-05-01T12:01:44.557Z,14.21
2023-05-01T12:04:12.506Z,14.10
2023-05-01T12:06:47.132Z,13.91
2023-05-01T12:09:19.126Z,13.88
2023-05-01T12:11:48.202Z,14.00
2023-05-01T12:14:15.943Z,13.97
2023-05-01T12:16:43.234Z,13.94
2023-05-01T12:19:12.166Z,13.91
2023-05-01T12:21:38.943Z,13.77
2023-05-01T12:24:17.901Z,13.83
2023-05-01T12:26:46.217Z,13.97
2023-05-01T12:29:13.012Z,14.06
2023-05-01T12:31:47.907Z,14.38
2023-05-01T12:34:14.706Z,14.78
2023-05-01T12:36:41.495Z,14.68
2023-05-01T12:39:11.671Z,14.92
2023-05-01T12:41:42.718Z,15.04
2023-05-01T12:44:19.583Z,15.37
2023-05-01T12:46:54.010Z,15.29
2023-05-01T12:49:21.613Z,15.24
2023-05-01T12:51:49.720Z,15.36
2023-05-01T12:54:30.920Z,15.42
2023-05-01T12:57:15.089Z,15.69
2023-05-01T12:59:43.996Z,16.10
2023-05-01T13:02:17.201Z,16.23
2023-05-01T13:04:45.104Z,16.11
2023-05-01T13:07:16.668Z,16.04
2023-05-01T13:09:58.451Z,15.95
2023-05-01T13:12:26.399Z,16.00
2023-05-01T13:14:54.041Z,16.13
2023-05-01T13:17:26.146Z,16.27
2023-05-01T13:20:01.092Z,16.50
2023-05-01T13:22:36.403Z,16.52
2023-05-01T13:25:04.922Z,16.63
2023-05-01T13:27:31.842Z,16.65
2023-05-01T13:29:59.879Z,16.53
2023-05-01T13:32:27.344Z,16.37
2023-05-01T13:34:54.382Z,16.33
2023-05-01T13:37:23.910Z,16.27
2023-05-01T13:39:50.783Z,16.06
2023-05-01T13:42:27.368Z,15.94
2023-05-01T13:44:58.155Z,16.01
2023-05-01T13:47:29.070Z,16.02
2023-05-01T13:49:56.095Z,15.95
2023-05-01T13:52:23.253Z,16.02
2023-05-01T13:54:56.621Z,16.11
2023-05-01T13:57:23.409Z,16.15
2023-05-01T13:59:50.020Z,16.20
2023-05-01T14:02:20.854Z,16.23
2023-05-01T14:04:49.285Z,16.16
2023-05-01T14:07:19.165Z,16.04
2023-05-01T14:09:53.331Z,16.03
2023-05-01T14:12:22.333Z,16.22
2023-05-01T14:14:49.339Z,16.33
2023-05-01T14:17:16.223Z,16.32
2023-05-01T14:19:43.044Z,16.34
2023-05-01T14:22:10.760Z,16.43
2023-05-01T14:24:41.274Z,16.51
2023-05-01T14:27:10.163Z,16.52
2023-05-01T14:29:43.743Z,16.45
2023-05-01T14:32:10.943Z,16.37
2023-05-01T14:34:41.040Z,16.48
2023-05-01T14:37:08.919Z,16.35
2023-05-01T14:39:36.011Z,16.28
2023-05-01T14:42:04.446Z,16.26
2023-05-01T14:44:31.172Z,16.16
2023-05-01T14:46:58.929Z,16.03
2023-05-01T14:49:26.079Z,15.83
2023-05-01T14:51:53.950Z,15.89
2023-05-01T14:54:21.312Z,16.07
2023-05-01T14:56:49.034Z,16.15
2023-05-01T14:59:16.390Z,16.04
2023-05-01T15:01:44.094Z,15.69
2023-05-01T15:04:12.625Z,15.73
2023-05-01T15:06:39.576Z,15.73
2023-05-01T15:09:06.417Z,15.64
2023-05-01T15:11:33.373Z,15.52
2023-05-01T15:14:00.060Z,15.43
2023-05-01T15:16:28.489Z,15.42
2023-05-01T15:18:55.352Z,15.33
2023-05-01T15:21:21.987Z,15.37
2023-05-01T15:23:48.617Z,15.35
2023-05-01T15:26:15.409Z,15.51
2023-05-01T15:28:42.161Z,15.76
2023-05-01T15:31:08.864Z,15.95
2023-05-01T15:33:35.640Z,16.13
2023-05-01T15:36:02.346Z,16.18
2023-05-01T15:38:29.160Z,16.03
2023-05-01T15:40:56.742Z,15.82
2023-05-01T15:43:23.472Z,15.65
2023-05-01T15:45:52.218Z,15.67
2023-05-01T15:48:19.147Z,15.48
2023-05-01T15:50:48.676Z,15.31
2023-05-01T15:53:17.227Z,15.18
2023-05-01T15:55:44.067Z,15.06
2023-05-01T15:58:11.111Z,14.90
2023-05-01T16:00:39.709Z,14.71
2023-05-01T16:03:08.413Z,14.67
2023-05-01T16:05:37.202Z,14.54
2023-05-01T16:08:05.826Z,14.43
2023-05-01T16:10:37.145Z,14.36
2023-05-01T16:13:06.413Z,14.30
2023-05-01T16:15:34.004Z,14.10
2023-05-01T16:18:04.048Z,13.98
2023-05-01T16:20:38.932Z,13.89
2023-05-01T16:23:05.569Z,13.81
2023-05-01T16:25:32.283Z,13.67
2023-05-01T16:27:58.985Z,13.58
2023-05-01T16:30:27.855Z,13.46
2023-05-01T16:32:54.759Z,13.40
2023-05-01T16:35:27.638Z,13.41
2023-05-01T16:37:55.241Z,13.37
2023-05-01T16:40:22.372Z,13.41
2023-05-01T16:42:53.600Z,13.25
2023-05-01T16:45:21.257Z,13.17
2023-05-01T16:47:48.103Z,13.28
2023-05-01T16:50:16.484Z,13.21
2023-05-01T16:52:43.248Z,13.27
2023-05-01T16:55:10.213Z,13.23
2023-05-01T16:57:36.956Z,13.19
2023-05-01T17:00:05.289Z,13.16
2023-05-01T17:02:33.348Z,13.13
2023-05-01T17:05:00.361Z,13.14
2023-05-01T17:07:27.066Z,13.14
2023-05-01T17:09:53.770Z,13.20
2023-05-01T17:12:20.481Z,13.20
2023-05-01T17:14:47.426Z,13.14
2023-05-01T17:17:15.160Z,13.17
2023-05-01T17:19:41.920Z,12.97
2023-05-01T17:22:08.558Z,13.03
2023-05-01T17:24:36.397Z,13.05
2023-05-01T17:27:05.941Z,12.93
2023-05-01T17:29:32.734Z,12.95
2023-05-01T17:31:59.497Z,12.91
2023-05-01T17:34:26.312Z,12.84
2023-05-01T17:36:53.032Z,12.75
2023-05-01T17:39:21.847Z,12.67
2023-05-01T17:41:49.829Z,12.62
2023-05-01T17:44:16.545Z,12.56
2023-05-01T17:46:43.160Z,12.51
2023-05-01T17:49:09.877Z,12.44
2023-05-01T17:51:37.310Z,12.49
2023-05-01T17:54:04.030Z,12.51
2023-05-01T17:56:30.686Z,12.52
2023-05-01T17:58:57.352Z,12.52
2023-05-01T18:01:24.260Z,12.46
2023-05-01T18:03:51.329Z,12.40
2023-05-01T18:06:18.246Z,12.41
2023-05-01T18:08:44.958Z,12.43
2023-05-01T18:11:11.629Z,12.41
2023-05-01T18:13:39.776Z,12.34
2023-05-01T18:16:06.666Z,12.26
2023-05-01T18:18:33.329Z,12.24
2023-05-01T18:21:00.019Z,12.26
2023-05-01T18:23:26.711Z,12.25
2023-05-01T18:25:54.935Z,12.23
2023-05-01T18:28:22.114Z,12.22
2023-05-01T18:30:48.934Z,12.21
2023-05-01T18:33:15.724Z,12.21
2023-05-01T18:35:42.729Z,12.17
2023-05-01T18:38:10.482Z,12.19
2023-05-01T18:40:37.941Z,12.23
2023-05-01T18:43:05.115Z,12.10
2023-05-01T18:45:31.861Z,12.16
2023-05-01T18:48:00.701Z,12.10
2023-05-01T18:50:27.669Z,12.09
2023-05-01T18:52:54.579Z,12.10
2023-05-01T18:55:21.229Z,12.06
2023-05-01T18:57:48.534Z,12.03
2023-05-01T19:00:17.598Z,12.01
2023-05-01T19:02:51.328Z,11.95
2023-05-01T19:05:18.504Z,11.91
2023-05-01T19:07:45.365Z,11.87
2023-05-01T19:10:12.153Z,11.87
2023-05-01T19:12:39.491Z,11.83
2023-05-01T19:15:06.682Z,11.88
2023-05-01T19:17:34.037Z,11.79
2023-05-01T19:20:01.143Z,11.69
2023-05-01T19:22:28.044Z,11.75
2023-05-01T19:24:54.678Z,11.65
2023-05-01T19:27:21.513Z,11.66
2023-05-01T19:29:48.250Z,11.64
2023-05-01T19:32:15.057Z,11.59
2023-05-01T19:34:41.828Z,11.52
2023-05-01T19:37:08.508Z,11.51
2023-05-01T19:39:35.594Z,11.52
2023-05-01T19:42:03.305Z,11.43
2023-05-01T19:44:30.015Z,11.41
2023-05-01T19:46:56.721Z,11.36
2023-05-01T19:49:25.020Z,11.24
2023-05-01T19:51:53.501Z,11.14
2023-05-01T19:54:22.347Z,11.12
2023-05-01T19:56:51.668Z,11.12
2023-05-01T19:59:19.064Z,11.05
2023-05-01T20:01:45.977Z,11.00
2023-05-01T20:04:12.902Z,10.99
2023-05-01T20:06:39.659Z,10.99
2023-05-01T20:09:06.887Z,10.96
2023-05-01T20:11:33.681Z,10.92
2023-05-01T20:14:00.944Z,10.85
2023-05-01T20:16:28.092Z,10.82
2023-05-01T20:18:54.801Z,10.87
2023-05-01T20:21:21.439Z,10.81
2023-05-01T20:23:50.375Z,10.77
2023-05-01T20:26:19.025Z,10.83
2023-05-01T20:28:46.156Z,10.73
2023-05-01T20:31:13.682Z,10.87
2023-05-01T20:33:40.363Z,10.82
2023-05-01T20:36:07.396Z,10.79
2023-05-01T20:38:40.565Z,10.81
2023-05-01T20:41:07.242Z,10.73
2023-05-01T20:43:33.922Z,10.71
2023-05-01T20:46:00.610Z,10.70
2023-05-01T20:48:27.636Z,10.64
2023-05-01T20:50:54.324Z,10.65
2023-05-01T20:53:21.245Z,10.68
2023-05-01T20:55:49.759Z,10.70
2023-05-01T20:58:16.687Z,10.63
2023-05-01T21:00:43.404Z,10.56
2023-05-01T21:03:10.479Z,10.59
2023-05-01T21:05:37.270Z,10.54
2023-05-01T21:08:03.940Z,10.57
2023-05-01T21:10:31.594Z,10.57
2023-05-01T21:12:58.694Z,10.60
2023-05-01T21:15:26.994Z,10.63
2023-05-01T21:17:53.803Z,10.59
2023-05-01T21:20:30.520Z,10.60
2023-05-01T21:22:57.163Z,10.61
2023-05-01T21:25:27.061Z,10.56
2023-05-01T21:27:54.400Z,10.59
2023-05-01T21:30:33.547Z,10.57
2023-05-01T21:33:01.870Z,10.57
2023-05-01T21:35:29.864Z,10.50
2023-05-01T21:37:57.597Z,10.52
2023-05-01T21:40:25.007Z,10.47
2023-05-01T21:42:54.298Z,10.44
2023-05-01T21:45:21.072Z,10.41
2023-05-01T21:47:53.149Z,10.38
2023-05-01T21:50:20.422Z,10.35
2023-05-01T21:52:49.300Z,10.33
2023-05-01T21:55:18.620Z,10.29
2023-05-01T21:57:45.408Z,10.26
2023-05-01T22:00:12.552Z,10.22
2023-05-01T22:02:44.527Z,10.25
2023-05-01T22:05:12.958Z,10.23
2023-05-01T22:07:41.106Z,10.19
2023-05-01T22:10:14.638Z,10.14
2023-05-01T22:12:41.826Z,10.02
2023-05-01T22:15:10.141Z,9.96
2023-05-01T22:17:38.058Z,9.95
2023-05-01T22:20:07.251Z,9.76
2023-05-01T22:22:34.769Z,9.88
2023-05-01T22:25:01.673Z,9.85
2023-05-01T22:27:28.325Z,9.82
2023-05-01T22:29:55.019Z,9.77
2023-05-01T22:32:21.934Z,9.74
2023-05-01T22:34:48.749Z,9.70
2023-05-01T22:37:15.849Z,9.69
2023-05-01T22:39:43.001Z,9.70
2023-05-01T22:42:09.804Z,9.69
2023-05-01T22:44:36.684Z,9.70
2023-05-01T22:47:03.427Z,9.62
2023-05-01T22:49:32.827Z,9.66
2023-05-01T22:51:59.841Z,9.65
2023-05-01T22:54:26.591Z,9.57
2023-05-01T22:56:53.423Z,9.53
2023-05-01T22:59:21.809Z,9.48
2023-05-01T23:01:48.747Z,9.45
2023-05-01T23:04:16.151Z,9.44
2023-05-01T23:06:44.366Z,9.32
2023-05-01T23:09:11.899Z,9.32
2023-05-01T23:11:40.352Z,9.27
2023-05-01T23:14:07.428Z,9.21
2023-05-01T23:16:41.681Z,9.23
2023-05-01T23:19:20.608Z,9.22
2023-05-01T23:21:48.020Z,9.18
2023-05-01T23:24:20.037Z,9.17
2023-05-01T23:26:47.597Z,9.21
2023-05-01T23:29:16.192Z,9.15
2023-05-01T23:31:47.217Z,9.08
2023-05-01T23:34:17.710Z,9.04
2023-05-01T23:36:47.711Z,9.03
2023-05-01T23:39:16.395Z,9.04
2023-05-01T23:41:43.550Z,9.08
2023-05-01T23:44:11.621Z,9.09
2023-05-01T23:46:38.710Z,9.08
2023-05-01T23:49:05.638Z,9.07
2023-05-01T23:51:32.813Z,9.08
2023-05-01T23:54:00.324Z,9.03
2023-05-01T23:56:27.222Z,9.03
2023-05-01T23:58:54.027Z,8.99
